メインページ
METAR-TAF:

METAR-TAF

空港 :

Wings Field

フィラデルフィア / Blue Bell, ペンシルバニア州, アメリカ合衆国

緯度: 40-08-15N, 経度: 075-15-54W, 海抜: 92m

現時点の気象観測

当レポートは17分前の23:55(UTC)に作成
無風
気温 19°C
湿度 94%
気圧 1017 hPa
視程: 16.1km
晴天

METAR: KLOM 232355Z AUTO 00000KT 10SM CLR 19/18 A3003 RMK AO2 T01920184 10221 20185 402710171

時間: 20:12 (00:12 UTC)


TAF: 見つかりません

4,000以上の空港の気象観測と天気予報(METAR報とTAF報)

利用可能な観測所は地図上に黄色い丸と赤い丸で示す。

丸の上にカーソルを重ねると観測所名を参照できる。

次にクリックすると気象観測と天気予報を参照できる。

マップの切り替え:黒色「×」印の緑ボタンをクリックして拡大、「-」印の緑ボタンをクリックして縮小、緑色の三角印をクリックして隣りの地図に切り替え


METAR-TAF: